Time;durP1;ratioP1;P1;durP2;ratioP2;P2;SDS_P1;SDS_P2;PMS_P1;PMS_P2;Temp;Humidity;BMP_temperature;BMP_pressure;BME280_temperature;BME280_humidity;BME280_pressure;Samples;Min_cycle;Max_cycle;Signal;HPM_P1;HPM_P2
2021/12/06 00:01:23;;;;;;;9.85;6.10;;;;;;;;;;5050396;28;20028;-67
2021/12/06 00:03:57;;;;;;;11.70;6.43;;;;;;;;;;5049885;28;20021;-67
2021/12/06 00:06:24;;;;;;;13.23;6.53;;;;;;;;;;5051404;28;20025;-67
2021/12/06 00:08:49;;;;;;;10.80;5.68;;;;;;;;;;5050308;28;20021;-67
2021/12/06 00:11:15;;;;;;;15.57;6.32;;;;;;;;;;5033228;28;20471;-67
2021/12/06 00:13:42;;;;;;;13.50;6.03;;;;;;;;;;5051696;28;20021;-67
2021/12/06 00:16:13;;;;;;;15.38;6.07;;;;;;;;;;5050787;28;20126;-67
2021/12/06 00:18:38;;;;;;;11.98;5.88;;;;;;;;;;5049960;28;20027;-67
2021/12/06 00:21:04;;;;;;;11.73;6.03;;;;;;;;;;5050386;28;20025;-67
2021/12/06 00:23:29;;;;;;;12.73;6.25;;;;;;;;;;5051402;28;20504;-67
2021/12/06 00:25:55;;;;;;;18.65;8.68;;;;;;;;;;5051245;28;20161;-67
2021/12/06 00:28:21;;;;;;;13.82;6.43;;;;;;;;;;5051343;28;20031;-67
2021/12/06 00:30:46;;;;;;;13.40;6.15;;;;;;;;;;5050291;28;20469;-67
2021/12/06 00:33:11;;;;;;;11.70;6.05;;;;;;;;;;5050545;28;20030;-67
2021/12/06 00:35:36;;;;;;;10.65;6.15;;;;;;;;;;5051056;28;20029;-67
2021/12/06 00:38:02;;;;;;;16.08;6.65;;;;;;;;;;5051100;28;20530;-67
2021/12/06 00:40:29;;;;;;;14.15;6.28;;;;;;;;;;5050415;28;20115;-67
2021/12/06 00:42:54;;;;;;;12.88;6.70;;;;;;;;;;5050865;28;20025;-67
2021/12/06 00:45:20;;;;;;;14.10;6.75;;;;;;;;;;5050876;28;20079;-67
2021/12/06 00:47:46;;;;;;;11.98;6.65;;;;;;;;;;5051239;28;20063;-67
2021/12/06 00:50:11;;;;;;;10.77;6.18;;;;;;;;;;5050355;28;20053;-67
2021/12/06 00:52:37;;;;;;;9.85;5.50;;;;;;;;;;5050806;28;20100;-67
2021/12/06 00:55:02;;;;;;;16.38;6.18;;;;;;;;;;5050500;28;20021;-67
2021/12/06 00:57:28;;;;;;;13.02;6.85;;;;;;;;;;5050178;28;20036;-67
2021/12/06 00:59:53;;;;;;;11.55;6.57;;;;;;;;;;5050434;28;20048;-67
2021/12/06 01:02:19;;;;;;;11.68;6.90;;;;;;;;;;5050068;28;20024;-67
2021/12/06 01:04:45;;;;;;;12.77;6.47;;;;;;;;;;5050598;28;20021;-67
2021/12/06 01:07:10;;;;;;;14.10;7.53;;;;;;;;;;5050310;28;20473;-67
2021/12/06 01:09:35;;;;;;;17.30;7.15;;;;;;;;;;5050364;28;20022;-67
2021/12/06 01:12:01;;;;;;;12.55;6.63;;;;;;;;;;5050349;28;20119;-67
2021/12/06 01:14:26;;;;;;;12.48;7.00;;;;;;;;;;5050489;28;20099;-67
2021/12/06 01:16:52;;;;;;;15.05;7.57;;;;;;;;;;5050003;28;20603;-67
2021/12/06 01:19:17;;;;;;;15.27;7.63;;;;;;;;;;5049944;28;20024;-67
2021/12/06 01:21:52;;;;;;;19.35;6.78;;;;;;;;;;5049551;28;20017;-67
2021/12/06 01:24:24;;;;;;;12.52;7.00;;;;;;;;;;5050167;28;20032;-67
2021/12/06 01:27:14;;;;;;;15.00;5.82;;;;;;;;;;5049915;28;20116;-67
2021/12/06 01:29:59;;;;;;;17.85;6.32;;;;;;;;;;5047453;28;20021;-67
2021/12/06 01:40:26;;;;;;;15.30;7.18;;;;;;;;;;5046487;28;20112;-67
2021/12/06 01:42:51;;;;;;;15.27;7.25;;;;;;;;;;5050156;28;20520;-67
2021/12/06 01:45:16;;;;;;;15.63;7.18;;;;;;;;;;5048951;28;20481;-67
2021/12/06 01:47:41;;;;;;;12.50;7.40;;;;;;;;;;5032509;28;20013;-68
2021/12/06 01:50:12;;;;;;;12.45;6.75;;;;;;;;;;5049663;28;20078;-67
2021/12/06 01:52:39;;;;;;;14.57;6.40;;;;;;;;;;5049248;28;20063;-67
2021/12/06 01:55:07;;;;;;;17.70;6.85;;;;;;;;;;5049631;28;20021;-67
2021/12/06 01:57:32;;;;;;;12.05;7.25;;;;;;;;;;5049496;28;20051;-66
2021/12/06 01:59:57;;;;;;;12.85;6.85;;;;;;;;;;5049214;28;20091;-67
2021/12/06 02:02:23;;;;;;;13.30;6.68;;;;;;;;;;5049620;28;20032;-66
2021/12/06 02:04:49;;;;;;;12.60;6.68;;;;;;;;;;5049551;28;20104;-67
2021/12/06 02:07:16;;;;;;;15.10;6.80;;;;;;;;;;5049507;28;20104;-66
2021/12/06 02:09:42;;;;;;;11.98;6.88;;;;;;;;;;5049845;28;20174;-65
2021/12/06 02:12:08;;;;;;;15.40;6.40;;;;;;;;;;5049471;28;20516;-66
2021/12/06 02:17:12;;;;;;;15.55;7.85;;;;;;;;;;5048885;28;20032;-65
2021/12/06 02:19:41;;;;;;;17.02;7.65;;;;;;;;;;5049482;28;20388;-66
2021/12/06 02:22:11;;;;;;;12.02;7.22;;;;;;;;;;5048423;28;20021;-64
2021/12/06 02:24:37;;;;;;;13.35;6.35;;;;;;;;;;5050049;28;20110;-65
2021/12/06 02:27:03;;;;;;;12.40;6.47;;;;;;;;;;5049512;28;20025;-65
2021/12/06 02:29:29;;;;;;;11.60;6.80;;;;;;;;;;5049277;28;20119;-67
2021/12/06 02:31:54;;;;;;;16.60;7.07;;;;;;;;;;5049110;28;20029;-66
2021/12/06 02:34:19;;;;;;;12.63;6.05;;;;;;;;;;5049220;28;20039;-68
2021/12/06 02:36:48;;;;;;;15.07;6.35;;;;;;;;;;5049628;28;20366;-67
2021/12/06 02:39:20;;;;;;;13.57;7.93;;;;;;;;;;5049111;28;20444;-64
2021/12/06 02:41:47;;;;;;;15.48;6.38;;;;;;;;;;5049063;28;20020;-66
2021/12/06 02:44:13;;;;;;;18.58;6.60;;;;;;;;;;5050547;28;20023;-64
2021/12/06 02:46:38;;;;;;;12.82;6.43;;;;;;;;;;5053375;28;20403;-65
2021/12/06 02:49:03;;;;;;;11.85;6.60;;;;;;;;;;5051947;28;20500;-65
2021/12/06 02:51:29;;;;;;;11.55;6.15;;;;;;;;;;5052778;28;20104;-65
2021/12/06 02:53:54;;;;;;;13.43;6.68;;;;;;;;;;5053132;28;20112;-66
2021/12/06 02:56:31;;;;;;;10.98;6.30;;;;;;;;;;5052599;28;20032;-65
2021/12/06 02:59:04;;;;;;;15.07;5.97;;;;;;;;;;5052810;28;20029;-67
2021/12/06 03:01:38;;;;;;;16.15;6.30;;;;;;;;;;5052627;28;20021;-64
2021/12/06 03:04:03;;;;;;;13.85;6.57;;;;;;;;;;5052716;28;20397;-65
2021/12/06 03:06:29;;;;;;;15.25;7.43;;;;;;;;;;5052981;28;20025;-66
2021/12/06 03:09:02;;;;;;;15.25;6.88;;;;;;;;;;5034447;28;20027;-64
2021/12/06 03:11:29;;;;;;;13.00;6.38;;;;;;;;;;5051013;28;20021;-65
2021/12/06 03:13:55;;;;;;;19.30;6.70;;;;;;;;;;5029719;28;20111;-65
2021/12/06 03:16:20;;;;;;;17.73;7.63;;;;;;;;;;5048372;28;20474;-65
2021/12/06 03:18:46;;;;;;;17.20;7.35;;;;;;;;;;5052822;28;20057;-65
2021/12/06 03:21:12;;;;;;;14.55;6.82;;;;;;;;;;5051606;28;20021;-65
2021/12/06 03:23:38;;;;;;;15.70;6.97;;;;;;;;;;5052172;28;20159;-66
2021/12/06 03:26:03;;;;;;;12.63;6.07;;;;;;;;;;5051725;28;20120;-65
2021/12/06 03:28:29;;;;;;;13.85;7.13;;;;;;;;;;5052224;28;20045;-64
2021/12/06 03:30:54;;;;;;;16.30;6.78;;;;;;;;;;5051771;28;20029;-65
2021/12/06 03:33:19;;;;;;;14.68;6.85;;;;;;;;;;5052467;28;20415;-64
2021/12/06 03:35:44;;;;;;;23.95;8.30;;;;;;;;;;5052028;28;20111;-65
2021/12/06 03:38:10;;;;;;;20.45;7.07;;;;;;;;;;5051421;28;20036;-66
2021/12/06 03:40:35;;;;;;;12.13;6.53;;;;;;;;;;5051866;28;20112;-64
2021/12/06 03:43:00;;;;;;;14.50;5.68;;;;;;;;;;5052167;28;20021;-66
2021/12/06 03:45:25;;;;;;;13.55;6.43;;;;;;;;;;5051770;28;20033;-65
2021/12/06 03:47:50;;;;;;;13.82;6.55;;;;;;;;;;5052553;28;20480;-65
2021/12/06 03:50:16;;;;;;;16.05;7.03;;;;;;;;;;5051586;28;20033;-65
2021/12/06 03:52:41;;;;;;;11.55;6.22;;;;;;;;;;5051129;28;20467;-64
2021/12/06 03:55:07;;;;;;;19.92;6.30;;;;;;;;;;5050755;28;20033;-65
2021/12/06 03:57:33;;;;;;;14.68;6.20;;;;;;;;;;5048829;28;20021;-65
2021/12/06 03:59:58;;;;;;;15.02;6.47;;;;;;;;;;5051583;28;20037;-69
2021/12/06 04:02:24;;;;;;;11.85;6.18;;;;;;;;;;5051722;28;20017;-64
2021/12/06 04:04:50;;;;;;;17.40;5.88;;;;;;;;;;5033891;28;20017;-64
2021/12/06 04:07:15;;;;;;;10.98;5.93;;;;;;;;;;5050929;28;20017;-65
2021/12/06 04:09:42;;;;;;;13.45;6.03;;;;;;;;;;5051562;28;20074;-66
2021/12/06 04:12:08;;;;;;;12.35;6.18;;;;;;;;;;5051286;28;20013;-65
2021/12/06 04:14:33;;;;;;;11.10;6.03;;;;;;;;;;5051905;28;20055;-65
2021/12/06 04:16:59;;;;;;;13.60;5.78;;;;;;;;;;5051558;28;20060;-65
2021/12/06 04:19:24;;;;;;;11.45;6.18;;;;;;;;;;5051640;28;20021;-65
2021/12/06 04:21:49;;;;;;;13.55;6.03;;;;;;;;;;5051453;28;20074;-67
2021/12/06 04:24:15;;;;;;;12.95;5.88;;;;;;;;;;5051336;28;20108;-65
2021/12/06 04:26:40;;;;;;;11.50;6.30;;;;;;;;;;5050947;28;20019;-65
2021/12/06 04:29:06;;;;;;;12.88;6.25;;;;;;;;;;5051345;28;20048;-66
2021/12/06 04:31:33;;;;;;;19.17;5.72;;;;;;;;;;5048298;28;20091;-65
2021/12/06 04:33:58;;;;;;;17.67;6.05;;;;;;;;;;5050885;28;20420;-65
2021/12/06 04:36:24;;;;;;;10.43;6.60;;;;;;;;;;5050144;28;20029;-65
2021/12/06 04:38:49;;;;;;;9.52;5.78;;;;;;;;;;5050914;28;20155;-65
2021/12/06 04:41:14;;;;;;;12.38;6.47;;;;;;;;;;5050537;28;20029;-65
2021/12/06 04:43:39;;;;;;;13.60;6.60;;;;;;;;;;5051480;28;20040;-65
2021/12/06 04:46:05;;;;;;;15.10;5.97;;;;;;;;;;5050989;28;20499;-65
2021/12/06 04:48:30;;;;;;;14.82;6.28;;;;;;;;;;5050875;28;20025;-66
2021/12/06 04:50:55;;;;;;;14.93;6.15;;;;;;;;;;5050973;28;20021;-65
2021/12/06 04:53:25;;;;;;;10.52;5.93;;;;;;;;;;5051008;28;20028;-65
2021/12/06 04:56:06;;;;;;;12.70;6.05;;;;;;;;;;5050185;28;20017;-66
2021/12/06 04:58:35;;;;;;;12.18;6.07;;;;;;;;;;5051034;28;20020;-64
2021/12/06 05:01:02;;;;;;;15.10;6.05;;;;;;;;;;5049811;28;20481;-65
2021/12/06 05:03:28;;;;;;;11.93;6.30;;;;;;;;;;5050431;28;20025;-64
2021/12/06 05:05:57;;;;;;;12.88;5.95;;;;;;;;;;5050716;28;20016;-67
2021/12/06 05:08:25;;;;;;;10.02;5.13;;;;;;;;;;5050202;28;20040;-64
2021/12/06 05:10:51;;;;;;;10.57;5.45;;;;;;;;;;5050905;28;20100;-64
2021/12/06 05:13:17;;;;;;;17.85;5.97;;;;;;;;;;5060203;28;20155;-65
2021/12/06 05:15:43;;;;;;;17.55;5.47;;;;;;;;;;5062339;28;20105;-65
2021/12/06 05:18:09;;;;;;;10.32;5.70;;;;;;;;;;5050273;28;20040;-64
2021/12/06 05:20:34;;;;;;;11.45;5.25;;;;;;;;;;5050219;28;20033;-67
2021/12/06 05:23:00;;;;;;;10.20;5.25;;;;;;;;;;5049987;28;20106;-65
2021/12/06 05:25:26;;;;;;;10.23;5.82;;;;;;;;;;5050393;28;20036;-65
2021/12/06 05:27:51;;;;;;;9.50;5.32;;;;;;;;;;5050282;28;20080;-64
2021/12/06 05:30:19;;;;;;;15.30;5.57;;;;;;;;;;5049738;28;20025;-65
2021/12/06 05:32:45;;;;;;;12.13;5.50;;;;;;;;;;5042692;28;20025;-66
2021/12/06 05:35:10;;;;;;;12.45;6.10;;;;;;;;;;5047616;28;20021;-66
2021/12/06 05:37:40;;;;;;;11.75;5.78;;;;;;;;;;5047578;28;20037;-65
2021/12/06 05:40:07;;;;;;;11.77;5.80;;;;;;;;;;5048106;28;20642;-65
2021/12/06 05:42:32;;;;;;;15.38;8.38;;;;;;;;;;5047583;28;20079;-65
2021/12/06 05:44:57;;;;;;;15.25;5.97;;;;;;;;;;5029838;28;20020;-64
2021/12/06 05:47:23;;;;;;;15.50;6.03;;;;;;;;;;5047867;28;20481;-65
2021/12/06 05:49:48;;;;;;;13.32;5.10;;;;;;;;;;5048418;28;20040;-65
2021/12/06 05:52:13;;;;;;;9.75;5.50;;;;;;;;;;5047147;28;20444;-66
2021/12/06 05:54:39;;;;;;;10.52;5.05;;;;;;;;;;5047553;28;20029;-66
2021/12/06 05:57:05;;;;;;;9.85;5.25;;;;;;;;;;5047983;28;20041;-64
2021/12/06 05:59:30;;;;;;;12.18;5.57;;;;;;;;;;5047916;28;20504;-67
2021/12/06 06:01:56;;;;;;;11.57;5.55;;;;;;;;;;5045346;28;20025;-65
2021/12/06 06:04:22;;;;;;;7.65;4.82;;;;;;;;;;5048082;28;20017;-66
2021/12/06 06:06:49;;;;;;;11.52;5.38;;;;;;;;;;5052330;28;20104;-66
2021/12/06 06:09:14;;;;;;;11.85;6.38;;;;;;;;;;5047998;28;20025;-66
2021/12/06 06:11:41;;;;;;;10.48;5.72;;;;;;;;;;5048296;28;20043;-66
2021/12/06 06:14:06;;;;;;;12.20;6.05;;;;;;;;;;5053310;28;20028;-66
2021/12/06 06:16:36;;;;;;;11.40;5.65;;;;;;;;;;5051908;28;20126;-65
2021/12/06 06:19:02;;;;;;;11.38;5.90;;;;;;;;;;5049828;28;20029;-66
2021/12/06 06:21:27;;;;;;;15.15;5.60;;;;;;;;;;5051644;28;20036;-65
2021/12/06 06:23:52;;;;;;;11.90;5.75;;;;;;;;;;5051701;28;20631;-68
2021/12/06 06:26:18;;;;;;;10.63;6.40;;;;;;;;;;5033919;28;20025;-67
2021/12/06 06:28:43;;;;;;;12.60;5.93;;;;;;;;;;5051681;28;20056;-66
2021/12/06 06:31:08;;;;;;;12.50;5.75;;;;;;;;;;5051266;28;20554;-67
2021/12/06 06:33:33;;;;;;;11.95;5.60;;;;;;;;;;5049605;28;20036;-67
2021/12/06 06:35:59;;;;;;;10.13;5.03;;;;;;;;;;5033074;28;20032;-66
2021/12/06 06:38:24;;;;;;;14.85;5.40;;;;;;;;;;5050631;28;20037;-67
2021/12/06 06:40:50;;;;;;;10.80;4.78;;;;;;;;;;5050906;28;20021;-67
2021/12/06 06:43:15;;;;;;;10.90;5.75;;;;;;;;;;5050896;28;20021;-67
2021/12/06 06:45:41;;;;;;;10.27;5.65;;;;;;;;;;5050233;28;20017;-66
2021/12/06 06:48:06;;;;;;;11.88;5.32;;;;;;;;;;5050052;28;20017;-66
2021/12/06 06:50:31;;;;;;;15.93;7.50;;;;;;;;;;5051274;28;20059;-66
2021/12/06 06:52:56;;;;;;;12.38;6.18;;;;;;;;;;5050753;28;20029;-68
2021/12/06 06:55:22;;;;;;;13.65;6.45;;;;;;;;;;5050962;28;20028;-66
2021/12/06 06:57:47;;;;;;;21.10;6.20;;;;;;;;;;5048617;28;20104;-67
2021/12/06 07:00:14;;;;;;;12.93;6.28;;;;;;;;;;5051760;28;20025;-67
2021/12/06 07:02:39;;;;;;;18.25;6.55;;;;;;;;;;5052200;28;20017;-65
2021/12/06 07:05:05;;;;;;;9.63;5.25;;;;;;;;;;5052839;28;20031;-67
2021/12/06 07:07:30;;;;;;;14.82;7.13;;;;;;;;;;5052760;28;20040;-66
2021/12/06 07:09:56;;;;;;;13.93;6.18;;;;;;;;;;5052677;28;20052;-66
2021/12/06 07:12:21;;;;;;;12.38;6.78;;;;;;;;;;5053229;28;20091;-66
2021/12/06 07:14:46;;;;;;;15.23;6.50;;;;;;;;;;5052452;28;20025;-66
2021/12/06 07:17:12;;;;;;;14.55;6.43;;;;;;;;;;5052604;28;20036;-66
2021/12/06 07:19:37;;;;;;;15.05;7.47;;;;;;;;;;5052181;28;20389;-67
2021/12/06 07:22:03;;;;;;;15.02;7.03;;;;;;;;;;5052293;28;20013;-66
2021/12/06 07:24:28;;;;;;;23.30;6.78;;;;;;;;;;5051581;28;20025;-67
2021/12/06 07:26:54;;;;;;;11.50;6.13;;;;;;;;;;5053189;28;20451;-66
2021/12/06 07:29:19;;;;;;;14.52;7.25;;;;;;;;;;5047917;28;20033;-65
2021/12/06 07:31:44;;;;;;;16.55;7.10;;;;;;;;;;5050001;28;20690;-66
2021/12/06 07:34:09;;;;;;;16.33;7.32;;;;;;;;;;5055493;28;20469;-67
2021/12/06 07:36:34;;;;;;;16.13;7.40;;;;;;;;;;5055029;28;20025;-66
2021/12/06 07:39:02;;;;;;;14.93;7.25;;;;;;;;;;5061122;28;20067;-66
2021/12/06 07:45:38;;;;;;;14.00;7.13;;;;;;;;;;4930901;29;20118;-91
2021/12/06 07:57:27;;;;;;;13.73;7.80;;;;;;;;;;4932271;29;20083;-91
2021/12/06 08:03:18;;;;;;;14.48;7.43;;;;;;;;;;4929923;29;20835;-91
2021/12/06 08:12:06;;;;;;;13.95;6.57;;;;;;;;;;4979996;23;20011;-64
2021/12/06 08:14:31;;;;;;;17.70;7.68;;;;;;;;;;5050638;28;20029;-66
2021/12/06 08:16:57;;;;;;;20.83;7.03;;;;;;;;;;5051582;28;20021;-64
2021/12/06 08:19:23;;;;;;;14.32;7.68;;;;;;;;;;5050847;28;20445;-64
2021/12/06 08:21:48;;;;;;;16.83;8.05;;;;;;;;;;5050748;28;20059;-64
2021/12/06 08:24:13;;;;;;;22.10;7.05;;;;;;;;;;5050405;28;20021;-64
2021/12/06 08:26:40;;;;;;;10.57;4.45;;;;;;;;;;5034161;28;20079;-64
2021/12/06 08:29:06;;;;;;;18.48;7.47;;;;;;;;;;5032180;28;20108;-65
2021/12/06 08:31:32;;;;;;;25.20;7.93;;;;;;;;;;5041748;28;20059;-64
2021/12/06 08:33:58;;;;;;;15.07;7.40;;;;;;;;;;5051128;28;20021;-65
2021/12/06 08:36:24;;;;;;;18.25;6.90;;;;;;;;;;5050708;28;20033;-64
2021/12/06 08:38:50;;;;;;;14.18;7.65;;;;;;;;;;5050805;28;20067;-64
2021/12/06 08:41:16;;;;;;;14.63;7.43;;;;;;;;;;5049525;28;20025;-66
2021/12/06 08:43:42;;;;;;;15.95;8.57;;;;;;;;;;5049984;28;20017;-66
2021/12/06 08:46:09;;;;;;;16.67;8.65;;;;;;;;;;5050639;28;20079;-64
2021/12/06 08:48:36;;;;;;;25.27;8.85;;;;;;;;;;5050203;28;20025;-65
2021/12/06 08:51:03;;;;;;;20.58;10.13;;;;;;;;;;5049567;28;20029;-65
2021/12/06 08:53:29;;;;;;;20.42;9.35;;;;;;;;;;5050162;28;20033;-65
2021/12/06 08:55:54;;;;;;;25.88;9.68;;;;;;;;;;5050079;28;20039;-64
2021/12/06 08:58:20;;;;;;;22.05;11.45;;;;;;;;;;5048214;28;20032;-64
2021/12/06 09:00:45;;;;;;;28.85;10.35;;;;;;;;;;5049646;28;20100;-65
2021/12/06 09:03:11;;;;;;;22.67;10.80;;;;;;;;;;5049900;28;20104;-64
2021/12/06 09:05:40;;;;;;;24.90;10.75;;;;;;;;;;5049950;28;20013;-65
2021/12/06 09:08:05;;;;;;;21.95;11.18;;;;;;;;;;5049612;28;20550;-64
2021/12/06 09:10:31;;;;;;;32.70;13.90;;;;;;;;;;5048755;28;20040;-65
2021/12/06 09:12:56;;;;;;;20.05;10.90;;;;;;;;;;5049566;28;20032;-65
2021/12/06 09:15:22;;;;;;;24.40;11.43;;;;;;;;;;5047036;28;20588;-64
2021/12/06 09:17:48;;;;;;;36.15;9.82;;;;;;;;;;5050816;28;20043;-65
2021/12/06 09:20:15;;;;;;;23.23;11.05;;;;;;;;;;5052049;28;20028;-64
2021/12/06 09:22:41;;;;;;;23.27;10.95;;;;;;;;;;5039054;28;20026;-65
2021/12/06 09:25:08;;;;;;;31.60;13.00;;;;;;;;;;5035323;28;20070;-64
2021/12/06 09:27:33;;;;;;;26.42;12.23;;;;;;;;;;5049745;28;20017;-64
2021/12/06 09:29:58;;;;;;;23.98;10.90;;;;;;;;;;5049415;28;20546;-65
2021/12/06 09:32:24;;;;;;;24.67;10.93;;;;;;;;;;5048256;28;20036;-64
2021/12/06 09:34:49;;;;;;;21.98;10.13;;;;;;;;;;5050243;28;20047;-64
2021/12/06 09:37:16;;;;;;;26.20;11.48;;;;;;;;;;5049503;28;20100;-64
2021/12/06 09:39:41;;;;;;;26.20;11.75;;;;;;;;;;5049458;28;20081;-64
2021/12/06 09:42:07;;;;;;;22.20;10.20;;;;;;;;;;5049196;28;20012;-65
2021/12/06 09:44:33;;;;;;;21.60;11.55;;;;;;;;;;5049569;28;20100;-65
2021/12/06 09:46:58;;;;;;;23.38;10.30;;;;;;;;;;5049196;28;20094;-64
2021/12/06 09:49:24;;;;;;;32.20;12.88;;;;;;;;;;5049214;28;20032;-64
2021/12/06 09:51:56;;;;;;;21.58;9.68;;;;;;;;;;5047616;28;20021;-65
2021/12/06 09:54:23;;;;;;;22.25;10.35;;;;;;;;;;5042521;28;20473;-65
2021/12/06 09:56:49;;;;;;;19.05;9.40;;;;;;;;;;5049729;28;20361;-64
2021/12/06 09:59:18;;;;;;;28.48;12.35;;;;;;;;;;5049267;28;20029;-65
2021/12/06 10:01:47;;;;;;;29.25;12.95;;;;;;;;;;5049285;28;20025;-65
2021/12/06 10:04:15;;;;;;;31.55;15.02;;;;;;;;;;5032485;28;20115;-65
2021/12/06 10:06:41;;;;;;;26.45;11.57;;;;;;;;;;5049271;28;20105;-64
2021/12/06 10:09:07;;;;;;;27.88;12.20;;;;;;;;;;5048539;28;20120;-64
2021/12/06 10:11:33;;;;;;;22.42;9.35;;;;;;;;;;5048718;28;20025;-64
2021/12/06 10:13:58;;;;;;;30.45;12.98;;;;;;;;;;5049463;28;20421;-65
2021/12/06 10:16:23;;;;;;;39.42;14.32;;;;;;;;;;5049559;28;20144;-65
2021/12/06 10:18:49;;;;;;;33.75;15.10;;;;;;;;;;5049643;28;20005;-64
2021/12/06 10:21:15;;;;;;;34.53;15.68;;;;;;;;;;5048460;28;20064;-65
2021/12/06 10:23:42;;;;;;;32.67;16.38;;;;;;;;;;5046389;28;20011;-65
2021/12/06 10:26:08;;;;;;;39.80;17.25;;;;;;;;;;5030454;28;20032;-64
2021/12/06 10:28:34;;;;;;;53.47;19.80;;;;;;;;;;5049204;28;20020;-64
2021/12/06 10:31:02;;;;;;;46.35;21.13;;;;;;;;;;5048422;28;20470;-65
2021/12/06 10:33:29;;;;;;;37.72;15.05;;;;;;;;;;5047883;28;20023;-65
2021/12/06 10:35:57;;;;;;;42.20;18.42;;;;;;;;;;5049227;28;20694;-64
2021/12/06 10:38:29;;;;;;;42.08;18.63;;;;;;;;;;5049658;28;20428;-65
2021/12/06 10:40:57;;;;;;;43.17;21.38;;;;;;;;;;5049043;28;20024;-65
2021/12/06 10:43:22;;;;;;;45.95;19.00;;;;;;;;;;5049352;28;20024;-65
2021/12/06 10:45:48;;;;;;;40.03;20.02;;;;;;;;;;5049437;28;20020;-65
2021/12/06 10:48:27;;;;;;;43.08;19.58;;;;;;;;;;5049681;28;20049;-65
2021/12/06 10:50:52;;;;;;;45.38;21.63;;;;;;;;;;5047399;28;20016;-65
2021/12/06 10:53:19;;;;;;;40.97;19.08;;;;;;;;;;5059594;28;20115;-65
2021/12/06 10:55:45;;;;;;;34.50;12.98;;;;;;;;;;5049296;28;20028;-65
2021/12/06 10:58:12;;;;;;;47.70;21.00;;;;;;;;;;5048940;28;20028;-66
2021/12/06 11:00:37;;;;;;;48.45;22.60;;;;;;;;;;5048431;28;20461;-65
2021/12/06 11:03:03;;;;;;;46.25;21.90;;;;;;;;;;5049561;28;20032;-65
2021/12/06 11:05:30;;;;;;;44.60;19.70;;;;;;;;;;5050487;28;20278;-64
2021/12/06 11:08:10;;;;;;;46.45;21.38;;;;;;;;;;5051515;28;20120;-64
2021/12/06 11:10:35;;;;;;;;;;;;;;;;;;5045063;28;20056;-66
2021/12/06 11:13:22;;;;;;;31.77;14.35;;;;;;;;;;5037402;28;19963;-64
2021/12/06 11:15:52;;;;;;;51.90;22.63;;;;;;;;;;5052728;28;20074;-66
2021/12/06 11:18:29;;;;;;;38.65;19.00;;;;;;;;;;5052203;28;20025;-64
2021/12/06 11:20:54;;;;;;;51.80;20.73;;;;;;;;;;5051649;28;20048;-64
2021/12/06 11:23:20;;;;;;;46.53;21.73;;;;;;;;;;5052734;28;20473;-65
2021/12/06 11:25:53;;;;;;;34.93;17.47;;;;;;;;;;5052638;28;20417;-64
2021/12/06 11:28:22;;;;;;;39.42;19.40;;;;;;;;;;5052322;28;20314;-65
2021/12/06 11:30:56;;;;;;;46.20;20.35;;;;;;;;;;5052287;28;20099;-64
2021/12/06 11:33:28;;;;;;;41.38;20.00;;;;;;;;;;5052495;28;20039;-66
2021/12/06 11:35:53;;;;;;;37.53;18.45;;;;;;;;;;5052379;28;20036;-65
2021/12/06 11:38:19;;;;;;;46.40;19.50;;;;;;;;;;5051427;28;20044;-64
2021/12/06 11:40:44;;;;;;;41.17;19.23;;;;;;;;;;5051956;28;20024;-65
2021/12/06 11:43:10;;;;;;;42.25;20.10;;;;;;;;;;5052516;28;20021;-65
2021/12/06 11:45:42;;;;;;;40.30;19.55;;;;;;;;;;5052335;28;20477;-65
2021/12/06 11:48:27;;;;;;;42.72;19.70;;;;;;;;;;5052192;28;20087;-65
2021/12/06 11:50:55;;;;;;;37.22;18.70;;;;;;;;;;5051248;28;20033;-66
2021/12/06 11:53:26;;;;;;;43.03;19.05;;;;;;;;;;5052214;28;20692;-65
2021/12/06 11:55:55;;;;;;;38.22;19.67;;;;;;;;;;5051646;28;20052;-64
2021/12/06 11:58:22;;;;;;;36.40;19.17;;;;;;;;;;5051749;28;20500;-65
2021/12/06 12:01:01;;;;;;;37.85;18.17;;;;;;;;;;5051409;28;20036;-65
2021/12/06 12:03:31;;;;;;;35.83;18.45;;;;;;;;;;5046821;28;20025;-65
2021/12/06 12:05:56;;;;;;;40.10;18.63;;;;;;;;;;5032367;28;20021;-64
2021/12/06 12:08:21;;;;;;;32.40;16.55;;;;;;;;;;5037890;28;20013;-65
2021/12/06 12:10:48;;;;;;;39.05;18.33;;;;;;;;;;5051164;28;20426;-65
2021/12/06 12:13:33;;;;;;;35.35;17.20;;;;;;;;;;5049915;28;20086;-65
2021/12/06 12:16:08;;;;;;;28.92;14.15;;;;;;;;;;5057497;28;20044;-65
2021/12/06 12:18:35;;;;;;;21.85;10.45;;;;;;;;;;5051657;28;20016;-66
2021/12/06 12:21:00;;;;;;;30.15;14.98;;;;;;;;;;5051098;28;20028;-66
2021/12/06 12:23:31;;;;;;;24.60;12.88;;;;;;;;;;5051693;28;20032;-64
2021/12/06 12:26:02;;;;;;;24.88;10.07;;;;;;;;;;5045530;28;20048;-65
2021/12/06 12:28:36;;;;;;;27.85;12.50;;;;;;;;;;5044797;28;20067;-65
2021/12/06 12:31:02;;;;;;;33.72;14.10;;;;;;;;;;5051223;28;20029;-66
2021/12/06 12:33:28;;;;;;;37.53;16.17;;;;;;;;;;5051200;28;20053;-65
2021/12/06 12:35:57;;;;;;;29.98;14.38;;;;;;;;;;5051477;28;20114;-65
2021/12/06 12:38:24;;;;;;;32.40;14.43;;;;;;;;;;5050986;28;20036;-66
2021/12/06 12:40:52;;;;;;;38.05;14.18;;;;;;;;;;5050944;28;20025;-65
2021/12/06 12:43:23;;;;;;;25.67;10.55;;;;;;;;;;5051033;28;20381;-65
2021/12/06 12:45:52;;;;;;;31.50;14.63;;;;;;;;;;5050766;28;20023;-65
2021/12/06 12:48:23;;;;;;;23.58;9.55;;;;;;;;;;5050825;28;20020;-65
2021/12/06 12:51:23;;;;;;;29.17;10.10;;;;;;;;;;5051044;28;20139;-65
2021/12/06 12:53:54;;;;;;;32.70;10.65;;;;;;;;;;4969974;28;20722;-65
2021/12/06 12:56:21;;;;;;;24.25;9.65;;;;;;;;;;5037016;28;20036;-65
2021/12/06 12:58:48;;;;;;;21.67;10.23;;;;;;;;;;5048665;28;20025;-65
2021/12/06 13:01:14;;;;;;;26.75;10.15;;;;;;;;;;5049775;28;20021;-65
2021/12/06 13:03:50;;;;;;;18.00;8.88;;;;;;;;;;5047861;28;20017;-65
2021/12/06 13:06:18;;;;;;;23.08;10.52;;;;;;;;;;5050525;28;20017;-65
2021/12/06 13:08:44;;;;;;;23.50;10.73;;;;;;;;;;5050835;28;20487;-66
2021/12/06 13:11:09;;;;;;;22.13;10.32;;;;;;;;;;5050131;28;20059;-65
2021/12/06 13:13:44;;;;;;;19.98;9.27;;;;;;;;;;5050452;28;20029;-65
2021/12/06 13:16:38;;;;;;;17.70;8.48;;;;;;;;;;5049626;28;20025;-66
2021/12/06 13:20:12;;;;;;;11.38;5.70;;;;;;;;;;5050509;28;20397;-65
2021/12/06 13:22:22;;;;;;;15.82;6.93;;;;;;;;;;5041085;28;20083;-65
2021/12/06 13:24:59;;;;;;;15.75;7.07;;;;;;;;;;5050556;28;20012;-65
2021/12/06 13:27:37;;;;;;;20.42;9.25;;;;;;;;;;5050052;28;20096;-65
2021/12/06 13:30:31;;;;;;;22.42;6.18;;;;;;;;;;5050455;28;20111;-65
2021/12/06 13:33:06;;;;;;;13.43;5.22;;;;;;;;;;5056540;28;20039;-67
2021/12/06 13:35:32;;;;;;;10.40;4.60;;;;;;;;;;5066171;28;20017;-67
2021/12/06 13:38:02;;;;;;;9.10;3.92;;;;;;;;;;5067347;28;20110;-67
2021/12/06 13:40:28;;;;;;;15.13;6.55;;;;;;;;;;5050282;28;20025;-66
2021/12/06 13:42:53;;;;;;;15.68;5.70;;;;;;;;;;5050550;28;20071;-66
2021/12/06 13:45:23;;;;;;;6.32;3.17;;;;;;;;;;5064340;23;20094;-69
2021/12/06 13:48:07;;;;;;;10.17;4.47;;;;;;;;;;5045439;28;20107;-66
2021/12/06 13:50:32;;;;;;;13.82;5.60;;;;;;;;;;5047636;28;20057;-66
2021/12/06 13:52:57;;;;;;;9.52;3.28;;;;;;;;;;5056138;28;20056;-68
2021/12/06 13:55:25;;;;;;;18.38;5.55;;;;;;;;;;5052699;28;20357;-66
2021/12/06 13:57:53;;;;;;;10.93;4.70;;;;;;;;;;5049449;28;20025;-66
2021/12/06 14:00:24;;;;;;;8.88;4.20;;;;;;;;;;5049187;28;20036;-66
2021/12/06 14:02:50;;;;;;;9.05;4.35;;;;;;;;;;5049416;28;20777;-67
2021/12/06 14:05:16;;;;;;;16.50;4.30;;;;;;;;;;5050210;28;20473;-66
2021/12/06 14:07:43;;;;;;;3.45;2.15;;;;;;;;;;5049739;28;20032;-66
2021/12/06 14:10:08;;;;;;;6.55;3.08;;;;;;;;;;5048721;28;20435;-66
2021/12/06 14:12:35;;;;;;;3.17;2.05;;;;;;;;;;5049989;28;20028;-67
2021/12/06 14:15:13;;;;;;;9.40;3.38;;;;;;;;;;5049405;28;20075;-67
2021/12/06 14:17:38;;;;;;;9.02;2.65;;;;;;;;;;5049755;28;20025;-66
2021/12/06 14:20:06;;;;;;;7.70;2.53;;;;;;;;;;5048688;28;20096;-67
2021/12/06 14:22:32;;;;;;;6.07;2.15;;;;;;;;;;5049176;28;20019;-68
2021/12/06 14:25:00;;;;;;;6.85;2.60;;;;;;;;;;5048128;28;20021;-69
2021/12/06 14:27:26;;;;;;;7.60;2.42;;;;;;;;;;5049606;28;20120;-69
2021/12/06 14:29:52;;;;;;;11.35;2.72;;;;;;;;;;5049298;28;20020;-68
2021/12/06 14:32:17;;;;;;;5.78;2.45;;;;;;;;;;5048345;28;20381;-69
2021/12/06 14:34:43;;;;;;;5.35;2.60;;;;;;;;;;5047265;28;20021;-69
2021/12/06 14:37:10;;;;;;;3.47;1.45;;;;;;;;;;5038361;28;20477;-68
2021/12/06 14:39:36;;;;;;;5.60;2.25;;;;;;;;;;5050853;28;20056;-69
2021/12/06 14:42:03;;;;;;;8.38;1.85;;;;;;;;;;5053256;28;20017;-68
2021/12/06 14:44:28;;;;;;;5.18;1.20;;;;;;;;;;5052899;28;20701;-69
2021/12/06 14:46:54;;;;;;;5.13;1.90;;;;;;;;;;5053433;28;20028;-70
2021/12/06 14:49:19;;;;;;;3.03;1.83;;;;;;;;;;5052482;28;20600;-67
2021/12/06 14:51:45;;;;;;;3.67;1.67;;;;;;;;;;5053457;28;20413;-70
2021/12/06 14:54:18;;;;;;;4.95;1.45;;;;;;;;;;5052507;28;20019;-69
2021/12/06 14:56:51;;;;;;;9.38;2.25;;;;;;;;;;5053251;28;20132;-68
2021/12/06 14:59:17;;;;;;;3.92;1.88;;;;;;;;;;5053123;28;20055;-70
2021/12/06 15:01:42;;;;;;;3.55;2.13;;;;;;;;;;5052540;28;20094;-70
2021/12/06 15:04:27;;;;;;;2.85;1.98;;;;;;;;;;5048757;28;20021;-69